sensor_id;sensor_type;location;lat;lon;timestamp;temperature;humidity
7588;DHT22;3835;48.850;8.938;2023-03-23T00:01:27;12.70;99.90
7588;DHT22;3835;48.850;8.938;2023-03-23T00:03:57;12.70;99.90
7588;DHT22;3835;48.850;8.938;2023-03-23T00:06:25;12.70;99.90
7588;DHT22;3835;48.850;8.938;2023-03-23T00:08:53;12.70;99.90
7588;DHT22;3835;48.850;8.938;2023-03-23T00:11:26;12.70;99.90
7588;DHT22;3835;48.850;8.938;2023-03-23T00:13:56;12.70;99.90
7588;DHT22;3835;48.850;8.938;2023-03-23T00:16:29;12.70;99.90
7588;DHT22;3835;48.850;8.938;2023-03-23T00:18:58;12.70;99.90
7588;DHT22;3835;48.850;8.938;2023-03-23T00:21:27;12.70;99.90
7588;DHT22;3835;48.850;8.938;2023-03-23T00:23:59;12.60;99.90
7588;DHT22;3835;48.850;8.938;2023-03-23T00:26:26;12.70;99.90
7588;DHT22;3835;48.850;8.938;2023-03-23T00:28:54;12.70;99.90
7588;DHT22;3835;48.850;8.938;2023-03-23T00:31:21;12.60;99.90
7588;DHT22;3835;48.850;8.938;2023-03-23T00:33:49;12.60;99.90
7588;DHT22;3835;48.850;8.938;2023-03-23T00:36:16;12.60;99.90
7588;DHT22;3835;48.850;8.938;2023-03-23T00:38:45;12.60;99.90
7588;DHT22;3835;48.850;8.938;2023-03-23T00:41:12;12.60;99.90
7588;DHT22;3835;48.850;8.938;2023-03-23T00:43:40;12.60;99.90
7588;DHT22;3835;48.850;8.938;2023-03-23T00:46:07;12.60;99.90
7588;DHT22;3835;48.850;8.938;2023-03-23T00:48:35;12.60;99.90
7588;DHT22;3835;48.850;8.938;2023-03-23T00:51:07;12.60;99.90
7588;DHT22;3835;48.850;8.938;2023-03-23T00:53:35;12.60;99.90
7588;DHT22;3835;48.850;8.938;2023-03-23T00:56:02;12.60;99.90
7588;DHT22;3835;48.850;8.938;2023-03-23T00:58:30;12.60;99.90
7588;DHT22;3835;48.850;8.938;2023-03-23T01:00:56;12.60;99.90
7588;DHT22;3835;48.850;8.938;2023-03-23T01:03:23;12.60;99.90
7588;DHT22;3835;48.850;8.938;2023-03-23T01:05:52;12.60;99.90
7588;DHT22;3835;48.850;8.938;2023-03-23T01:08:22;12.50;99.90
7588;DHT22;3835;48.850;8.938;2023-03-23T01:10:50;12.50;99.90
7588;DHT22;3835;48.850;8.938;2023-03-23T01:13:19;12.50;99.90
7588;DHT22;3835;48.850;8.938;2023-03-23T01:15:48;12.50;99.90
7588;DHT22;3835;48.850;8.938;2023-03-23T01:18:14;12.40;99.90
7588;DHT22;3835;48.850;8.938;2023-03-23T01:20:41;12.30;99.90
7588;DHT22;3835;48.850;8.938;2023-03-23T01:23:08;12.30;99.90
7588;DHT22;3835;48.850;8.938;2023-03-23T01:25:36;12.30;99.90
7588;DHT22;3835;48.850;8.938;2023-03-23T01:28:03;12.20;99.90
7588;DHT22;3835;48.850;8.938;2023-03-23T01:30:30;12.20;99.90
7588;DHT22;3835;48.850;8.938;2023-03-23T01:32:57;12.10;99.90
7588;DHT22;3835;48.850;8.938;2023-03-23T01:35:24;12.00;99.90
7588;DHT22;3835;48.850;8.938;2023-03-23T01:37:51;11.90;99.90
7588;DHT22;3835;48.850;8.938;2023-03-23T01:40:17;11.90;99.90
7588;DHT22;3835;48.850;8.938;2023-03-23T01:42:46;11.90;99.90
7588;DHT22;3835;48.850;8.938;2023-03-23T01:45:25;11.80;99.90
7588;DHT22;3835;48.850;8.938;2023-03-23T01:47:58;11.80;99.90
7588;DHT22;3835;48.850;8.938;2023-03-23T01:50:26;11.80;99.90
7588;DHT22;3835;48.850;8.938;2023-03-23T01:52:56;11.80;99.90
7588;DHT22;3835;48.850;8.938;2023-03-23T01:55:25;11.80;99.90
7588;DHT22;3835;48.850;8.938;2023-03-23T01:57:56;11.80;99.90
7588;DHT22;3835;48.850;8.938;2023-03-23T02:00:24;11.80;99.90
7588;DHT22;3835;48.850;8.938;2023-03-23T02:02:52;11.80;99.90
7588;DHT22;3835;48.850;8.938;2023-03-23T02:05:25;11.80;99.90
7588;DHT22;3835;48.850;8.938;2023-03-23T02:07:54;11.80;99.90
7588;DHT22;3835;48.850;8.938;2023-03-23T02:10:24;11.90;99.90
7588;DHT22;3835;48.850;8.938;2023-03-23T02:12:51;11.90;99.90
7588;DHT22;3835;48.850;8.938;2023-03-23T02:15:19;11.90;99.90
7588;DHT22;3835;48.850;8.938;2023-03-23T02:17:53;11.80;99.90
7588;DHT22;3835;48.850;8.938;2023-03-23T02:20:38;11.90;99.90
7588;DHT22;3835;48.850;8.938;2023-03-23T02:23:49;11.90;99.90
7588;DHT22;3835;48.850;8.938;2023-03-23T02:26:27;11.80;99.90
7588;DHT22;3835;48.850;8.938;2023-03-23T02:29:18;11.80;99.90
7588;DHT22;3835;48.850;8.938;2023-03-23T02:32:08;11.80;99.90
7588;DHT22;3835;48.850;8.938;2023-03-23T02:34:41;11.70;99.90
7588;DHT22;3835;48.850;8.938;2023-03-23T02:37:11;11.70;99.90
7588;DHT22;3835;48.850;8.938;2023-03-23T02:39:42;11.70;99.90
7588;DHT22;3835;48.850;8.938;2023-03-23T02:42:12;11.70;99.90
7588;DHT22;3835;48.850;8.938;2023-03-23T02:44:43;11.70;99.90
7588;DHT22;3835;48.850;8.938;2023-03-23T02:47:14;11.80;99.90
7588;DHT22;3835;48.850;8.938;2023-03-23T02:49:46;11.80;99.90
7588;DHT22;3835;48.850;8.938;2023-03-23T02:52:16;11.80;99.90
7588;DHT22;3835;48.850;8.938;2023-03-23T02:54:47;11.80;99.90
7588;DHT22;3835;48.850;8.938;2023-03-23T02:57:15;11.80;99.90
7588;DHT22;3835;48.850;8.938;2023-03-23T02:59:42;11.80;99.90
7588;DHT22;3835;48.850;8.938;2023-03-23T03:02:12;11.80;99.90
7588;DHT22;3835;48.850;8.938;2023-03-23T03:04:44;11.90;99.90
7588;DHT22;3835;48.850;8.938;2023-03-23T03:10:24;11.90;99.90
7588;DHT22;3835;48.850;8.938;2023-03-23T03:12:56;11.80;99.90
7588;DHT22;3835;48.850;8.938;2023-03-23T03:15:33;11.80;99.90
7588;DHT22;3835;48.850;8.938;2023-03-23T03:18:06;11.80;99.90
7588;DHT22;3835;48.850;8.938;2023-03-23T03:20:42;11.70;99.90
7588;DHT22;3835;48.850;8.938;2023-03-23T03:23:10;11.80;99.90
7588;DHT22;3835;48.850;8.938;2023-03-23T03:25:38;11.80;99.90
7588;DHT22;3835;48.850;8.938;2023-03-23T03:28:08;11.80;99.90
7588;DHT22;3835;48.850;8.938;2023-03-23T03:30:36;11.80;99.90
7588;DHT22;3835;48.850;8.938;2023-03-23T03:33:05;11.80;99.90
7588;DHT22;3835;48.850;8.938;2023-03-23T03:35:36;11.80;99.90
7588;DHT22;3835;48.850;8.938;2023-03-23T03:38:09;11.80;99.90
7588;DHT22;3835;48.850;8.938;2023-03-23T03:40:36;11.80;99.90
7588;DHT22;3835;48.850;8.938;2023-03-23T03:43:04;11.70;99.90
7588;DHT22;3835;48.850;8.938;2023-03-23T03:45:32;11.70;99.90
7588;DHT22;3835;48.850;8.938;2023-03-23T03:47:59;11.80;99.90
7588;DHT22;3835;48.850;8.938;2023-03-23T03:50:27;11.90;99.90
7588;DHT22;3835;48.850;8.938;2023-03-23T03:52:53;12.00;99.90
7588;DHT22;3835;48.850;8.938;2023-03-23T03:55:21;12.10;99.90
7588;DHT22;3835;48.850;8.938;2023-03-23T03:57:48;12.10;99.90
7588;DHT22;3835;48.850;8.938;2023-03-23T04:00:16;12.10;99.90
7588;DHT22;3835;48.850;8.938;2023-03-23T04:02:46;12.10;99.90
7588;DHT22;3835;48.850;8.938;2023-03-23T04:05:16;12.20;99.90
7588;DHT22;3835;48.850;8.938;2023-03-23T04:07:44;12.20;99.90
7588;DHT22;3835;48.850;8.938;2023-03-23T04:10:15;12.30;99.90
7588;DHT22;3835;48.850;8.938;2023-03-23T04:12:43;12.30;99.90
7588;DHT22;3835;48.850;8.938;2023-03-23T04:15:10;12.40;99.90
7588;DHT22;3835;48.850;8.938;2023-03-23T04:17:37;12.40;99.90
7588;DHT22;3835;48.850;8.938;2023-03-23T04:20:07;12.40;99.90
7588;DHT22;3835;48.850;8.938;2023-03-23T04:22:40;12.40;99.90
7588;DHT22;3835;48.850;8.938;2023-03-23T04:25:09;12.40;99.90
7588;DHT22;3835;48.850;8.938;2023-03-23T04:27:37;12.30;99.90
7588;DHT22;3835;48.850;8.938;2023-03-23T04:30:07;12.30;99.90
7588;DHT22;3835;48.850;8.938;2023-03-23T04:32:34;12.30;99.90
7588;DHT22;3835;48.850;8.938;2023-03-23T04:35:01;12.30;99.90
7588;DHT22;3835;48.850;8.938;2023-03-23T04:37:28;12.30;99.90
7588;DHT22;3835;48.850;8.938;2023-03-23T04:39:59;12.30;99.90
7588;DHT22;3835;48.850;8.938;2023-03-23T04:42:28;12.40;99.90
7588;DHT22;3835;48.850;8.938;2023-03-23T04:44:55;12.40;99.90
7588;DHT22;3835;48.850;8.938;2023-03-23T04:47:25;12.40;99.90
7588;DHT22;3835;48.850;8.938;2023-03-23T04:49:55;12.50;99.90
7588;DHT22;3835;48.850;8.938;2023-03-23T04:52:21;12.70;99.90
7588;DHT22;3835;48.850;8.938;2023-03-23T04:54:50;12.50;99.90
7588;DHT22;3835;48.850;8.938;2023-03-23T04:57:17;12.40;99.90
7588;DHT22;3835;48.850;8.938;2023-03-23T04:59:43;12.30;99.90
7588;DHT22;3835;48.850;8.938;2023-03-23T05:02:11;12.20;99.90
7588;DHT22;3835;48.850;8.938;2023-03-23T05:04:40;12.20;99.90
7588;DHT22;3835;48.850;8.938;2023-03-23T05:07:07;12.20;99.90
7588;DHT22;3835;48.850;8.938;2023-03-23T05:09:34;12.20;99.90
7588;DHT22;3835;48.850;8.938;2023-03-23T05:12:04;12.10;99.90
7588;DHT22;3835;48.850;8.938;2023-03-23T05:14:31;12.10;99.90
7588;DHT22;3835;48.850;8.938;2023-03-23T05:16:58;12.10;99.90
7588;DHT22;3835;48.850;8.938;2023-03-23T05:19:26;12.10;99.90
7588;DHT22;3835;48.850;8.938;2023-03-23T05:21:57;12.10;99.90
7588;DHT22;3835;48.850;8.938;2023-03-23T05:24:28;12.00;99.90
7588;DHT22;3835;48.850;8.938;2023-03-23T05:26:56;12.00;99.90
7588;DHT22;3835;48.850;8.938;2023-03-23T05:29:23;12.00;99.90
7588;DHT22;3835;48.850;8.938;2023-03-23T05:31:51;11.90;99.90
7588;DHT22;3835;48.850;8.938;2023-03-23T05:34:18;11.90;99.90
7588;DHT22;3835;48.850;8.938;2023-03-23T05:36:45;11.90;99.90
7588;DHT22;3835;48.850;8.938;2023-03-23T05:39:13;11.90;99.90
7588;DHT22;3835;48.850;8.938;2023-03-23T05:41:41;11.90;99.90
7588;DHT22;3835;48.850;8.938;2023-03-23T05:44:09;11.90;99.90
7588;DHT22;3835;48.850;8.938;2023-03-23T05:46:38;11.90;99.90
7588;DHT22;3835;48.850;8.938;2023-03-23T05:49:05;11.90;99.90
7588;DHT22;3835;48.850;8.938;2023-03-23T05:51:32;11.90;99.90
7588;DHT22;3835;48.850;8.938;2023-03-23T05:54:00;11.90;99.90
7588;DHT22;3835;48.850;8.938;2023-03-23T05:56:28;11.90;99.90
7588;DHT22;3835;48.850;8.938;2023-03-23T05:58:56;12.00;99.90
7588;DHT22;3835;48.850;8.938;2023-03-23T06:01:23;12.00;99.90
7588;DHT22;3835;48.850;8.938;2023-03-23T06:03:50;12.00;99.90
7588;DHT22;3835;48.850;8.938;2023-03-23T06:06:19;12.00;99.90
7588;DHT22;3835;48.850;8.938;2023-03-23T06:08:46;12.00;99.90
7588;DHT22;3835;48.850;8.938;2023-03-23T06:11:14;12.00;99.90
7588;DHT22;3835;48.850;8.938;2023-03-23T06:13:42;12.00;99.90
7588;DHT22;3835;48.850;8.938;2023-03-23T06:16:10;12.00;99.90
7588;DHT22;3835;48.850;8.938;2023-03-23T06:18:37;12.00;99.90
7588;DHT22;3835;48.850;8.938;2023-03-23T06:21:06;12.00;99.90
7588;DHT22;3835;48.850;8.938;2023-03-23T06:23:33;12.00;99.90
7588;DHT22;3835;48.850;8.938;2023-03-23T06:26:01;12.10;99.90
7588;DHT22;3835;48.850;8.938;2023-03-23T06:28:29;12.10;99.90
7588;DHT22;3835;48.850;8.938;2023-03-23T06:30:58;12.10;99.90
7588;DHT22;3835;48.850;8.938;2023-03-23T06:33:25;12.20;99.90
7588;DHT22;3835;48.850;8.938;2023-03-23T06:35:52;12.10;99.90
7588;DHT22;3835;48.850;8.938;2023-03-23T06:38:19;12.10;99.90
7588;DHT22;3835;48.850;8.938;2023-03-23T06:40:46;12.10;99.90
7588;DHT22;3835;48.850;8.938;2023-03-23T06:43:13;12.10;99.90
7588;DHT22;3835;48.850;8.938;2023-03-23T06:45:40;12.30;99.90
7588;DHT22;3835;48.850;8.938;2023-03-23T06:48:08;12.40;99.90
7588;DHT22;3835;48.850;8.938;2023-03-23T06:50:35;12.50;99.90
7588;DHT22;3835;48.850;8.938;2023-03-23T06:53:02;12.50;99.90
7588;DHT22;3835;48.850;8.938;2023-03-23T06:55:29;12.60;99.90
7588;DHT22;3835;48.850;8.938;2023-03-23T06:57:56;12.60;99.90
7588;DHT22;3835;48.850;8.938;2023-03-23T07:00:24;12.60;99.90
7588;DHT22;3835;48.850;8.938;2023-03-23T07:02:51;12.60;99.90
7588;DHT22;3835;48.850;8.938;2023-03-23T07:05:19;12.50;99.90
7588;DHT22;3835;48.850;8.938;2023-03-23T07:07:46;12.50;99.90
7588;DHT22;3835;48.850;8.938;2023-03-23T07:10:13;12.50;99.90
7588;DHT22;3835;48.850;8.938;2023-03-23T07:12:40;12.60;99.90
7588;DHT22;3835;48.850;8.938;2023-03-23T07:15:08;12.60;99.90
7588;DHT22;3835;48.850;8.938;2023-03-23T07:17:36;12.70;99.90
7588;DHT22;3835;48.850;8.938;2023-03-23T07:20:04;12.70;99.90
7588;DHT22;3835;48.850;8.938;2023-03-23T07:22:33;12.80;99.90
7588;DHT22;3835;48.850;8.938;2023-03-23T07:25:00;12.80;99.90
7588;DHT22;3835;48.850;8.938;2023-03-23T07:27:27;12.90;99.90
7588;DHT22;3835;48.850;8.938;2023-03-23T07:29:54;13.00;99.90
7588;DHT22;3835;48.850;8.938;2023-03-23T07:32:21;13.10;99.90
7588;DHT22;3835;48.850;8.938;2023-03-23T07:34:48;13.20;99.90
7588;DHT22;3835;48.850;8.938;2023-03-23T07:37:14;13.20;99.90
7588;DHT22;3835;48.850;8.938;2023-03-23T07:39:43;13.40;99.90
7588;DHT22;3835;48.850;8.938;2023-03-23T07:42:10;13.40;99.90
7588;DHT22;3835;48.850;8.938;2023-03-23T07:44:37;13.50;99.90
7588;DHT22;3835;48.850;8.938;2023-03-23T07:47:04;13.90;99.90
7588;DHT22;3835;48.850;8.938;2023-03-23T07:49:31;14.20;99.90
7588;DHT22;3835;48.850;8.938;2023-03-23T07:51:58;14.50;99.90
7588;DHT22;3835;48.850;8.938;2023-03-23T07:54:27;14.70;99.90
7588;DHT22;3835;48.850;8.938;2023-03-23T07:56:55;14.70;99.90
7588;DHT22;3835;48.850;8.938;2023-03-23T07:59:22;14.40;99.90
7588;DHT22;3835;48.850;8.938;2023-03-23T08:01:48;14.40;99.90
7588;DHT22;3835;48.850;8.938;2023-03-23T08:04:15;14.30;99.90
7588;DHT22;3835;48.850;8.938;2023-03-23T08:06:42;14.40;99.90
7588;DHT22;3835;48.850;8.938;2023-03-23T08:09:09;14.20;99.90
7588;DHT22;3835;48.850;8.938;2023-03-23T08:11:36;14.30;99.90
7588;DHT22;3835;48.850;8.938;2023-03-23T08:14:05;14.40;99.90
7588;DHT22;3835;48.850;8.938;2023-03-23T08:16:32;14.50;99.90
7588;DHT22;3835;48.850;8.938;2023-03-23T08:18:59;14.70;99.90
7588;DHT22;3835;48.850;8.938;2023-03-23T08:21:26;14.80;99.90
7588;DHT22;3835;48.850;8.938;2023-03-23T08:23:53;14.80;99.90
7588;DHT22;3835;48.850;8.938;2023-03-23T08:26:20;14.70;99.90
7588;DHT22;3835;48.850;8.938;2023-03-23T08:28:47;14.70;99.90
7588;DHT22;3835;48.850;8.938;2023-03-23T08:31:15;14.40;99.90
7588;DHT22;3835;48.850;8.938;2023-03-23T08:33:42;14.20;99.90
7588;DHT22;3835;48.850;8.938;2023-03-23T08:36:09;14.20;99.90
7588;DHT22;3835;48.850;8.938;2023-03-23T08:38:36;14.10;99.90
7588;DHT22;3835;48.850;8.938;2023-03-23T08:41:05;14.00;99.90
7588;DHT22;3835;48.850;8.938;2023-03-23T08:43:33;13.90;99.90
7588;DHT22;3835;48.850;8.938;2023-03-23T08:46:00;13.90;99.90
7588;DHT22;3835;48.850;8.938;2023-03-23T08:48:35;13.90;99.90
7588;DHT22;3835;48.850;8.938;2023-03-23T08:51:02;13.90;99.90
7588;DHT22;3835;48.850;8.938;2023-03-23T08:53:29;13.90;99.90
7588;DHT22;3835;48.850;8.938;2023-03-23T08:56:02;13.90;99.90
7588;DHT22;3835;48.850;8.938;2023-03-23T08:58:29;13.90;99.90
7588;DHT22;3835;48.850;8.938;2023-03-23T09:00:55;13.90;99.90
7588;DHT22;3835;48.850;8.938;2023-03-23T09:03:22;13.90;99.90
7588;DHT22;3835;48.850;8.938;2023-03-23T09:05:51;14.00;99.90
7588;DHT22;3835;48.850;8.938;2023-03-23T09:08:19;14.20;99.90
7588;DHT22;3835;48.850;8.938;2023-03-23T09:10:47;14.30;99.90
7588;DHT22;3835;48.850;8.938;2023-03-23T09:13:15;14.60;99.90
7588;DHT22;3835;48.850;8.938;2023-03-23T09:15:41;14.80;99.90
7588;DHT22;3835;48.850;8.938;2023-03-23T09:18:08;15.10;99.90
7588;DHT22;3835;48.850;8.938;2023-03-23T09:20:35;15.30;99.90
7588;DHT22;3835;48.850;8.938;2023-03-23T09:23:04;15.60;99.90
7588;DHT22;3835;48.850;8.938;2023-03-23T09:25:31;15.80;99.90
7588;DHT22;3835;48.850;8.938;2023-03-23T09:27:58;15.80;99.90
7588;DHT22;3835;48.850;8.938;2023-03-23T09:30:27;16.10;99.90
7588;DHT22;3835;48.850;8.938;2023-03-23T09:32:54;15.90;99.90
7588;DHT22;3835;48.850;8.938;2023-03-23T09:35:22;16.00;99.90
7588;DHT22;3835;48.850;8.938;2023-03-23T09:37:51;15.70;99.90
7588;DHT22;3835;48.850;8.938;2023-03-23T09:40:22;15.70;99.90
7588;DHT22;3835;48.850;8.938;2023-03-23T09:43:02;15.70;99.90
7588;DHT22;3835;48.850;8.938;2023-03-23T09:45:34;15.80;99.90
7588;DHT22;3835;48.850;8.938;2023-03-23T09:48:23;16.10;99.90
7588;DHT22;3835;48.850;8.938;2023-03-23T09:50:55;16.00;99.90
7588;DHT22;3835;48.850;8.938;2023-03-23T09:53:24;16.20;99.90
7588;DHT22;3835;48.850;8.938;2023-03-23T09:55:54;16.50;99.90
7588;DHT22;3835;48.850;8.938;2023-03-23T09:58:26;16.30;99.90
7588;DHT22;3835;48.850;8.938;2023-03-23T10:00:57;16.20;99.90
7588;DHT22;3835;48.850;8.938;2023-03-23T10:03:27;16.30;99.90
7588;DHT22;3835;48.850;8.938;2023-03-23T10:05:57;16.40;99.90
7588;DHT22;3835;48.850;8.938;2023-03-23T10:08:27;16.50;99.90
7588;DHT22;3835;48.850;8.938;2023-03-23T10:11:01;16.90;99.90
7588;DHT22;3835;48.850;8.938;2023-03-23T10:13:51;16.70;99.90
7588;DHT22;3835;48.850;8.938;2023-03-23T10:16:21;16.70;99.90
7588;DHT22;3835;48.850;8.938;2023-03-23T10:18:56;15.70;99.90
7588;DHT22;3835;48.850;8.938;2023-03-23T10:21:24;15.30;99.90
7588;DHT22;3835;48.850;8.938;2023-03-23T10:23:58;15.50;99.90
7588;DHT22;3835;48.850;8.938;2023-03-23T10:26:34;15.70;99.90
7588;DHT22;3835;48.850;8.938;2023-03-23T10:29:12;16.10;99.90
7588;DHT22;3835;48.850;8.938;2023-03-23T10:31:43;16.10;99.90
7588;DHT22;3835;48.850;8.938;2023-03-23T10:34:15;16.50;99.90
7588;DHT22;3835;48.850;8.938;2023-03-23T10:37:00;16.10;99.90
7588;DHT22;3835;48.850;8.938;2023-03-23T10:39:31;16.20;99.90
7588;DHT22;3835;48.850;8.938;2023-03-23T10:42:01;16.00;99.90
7588;DHT22;3835;48.850;8.938;2023-03-23T10:44:32;16.80;99.90
7588;DHT22;3835;48.850;8.938;2023-03-23T10:47:01;16.50;99.90
7588;DHT22;3835;48.850;8.938;2023-03-23T10:49:34;16.00;99.90
7588;DHT22;3835;48.850;8.938;2023-03-23T10:52:09;16.40;99.90
7588;DHT22;3835;48.850;8.938;2023-03-23T10:54:45;16.30;99.90
7588;DHT22;3835;48.850;8.938;2023-03-23T10:57:21;16.20;99.90
7588;DHT22;3835;48.850;8.938;2023-03-23T10:59:48;15.80;99.90
7588;DHT22;3835;48.850;8.938;2023-03-23T11:02:17;16.00;99.90
7588;DHT22;3835;48.850;8.938;2023-03-23T11:04:46;15.70;99.90
7588;DHT22;3835;48.850;8.938;2023-03-23T11:07:27;15.60;99.90
7588;DHT22;3835;48.850;8.938;2023-03-23T11:09:56;15.90;99.90
7588;DHT22;3835;48.850;8.938;2023-03-23T11:12:25;16.00;99.90
7588;DHT22;3835;48.850;8.938;2023-03-23T11:14:52;15.70;99.90
7588;DHT22;3835;48.850;8.938;2023-03-23T11:17:29;15.70;99.90
7588;DHT22;3835;48.850;8.938;2023-03-23T11:19:56;15.80;99.90
7588;DHT22;3835;48.850;8.938;2023-03-23T11:22:26;16.00;99.90
7588;DHT22;3835;48.850;8.938;2023-03-23T11:24:55;16.20;99.90
7588;DHT22;3835;48.850;8.938;2023-03-23T11:27:25;16.10;99.90
7588;DHT22;3835;48.850;8.938;2023-03-23T11:29:55;16.60;99.90
7588;DHT22;3835;48.850;8.938;2023-03-23T11:32:24;17.00;99.90
7588;DHT22;3835;48.850;8.938;2023-03-23T11:34:56;16.90;99.90
7588;DHT22;3835;48.850;8.938;2023-03-23T11:37:29;16.90;99.90
7588;DHT22;3835;48.850;8.938;2023-03-23T11:39:58;17.20;99.90
7588;DHT22;3835;48.850;8.938;2023-03-23T11:42:35;17.20;99.90
7588;DHT22;3835;48.850;8.938;2023-03-23T11:45:18;17.40;99.90
7588;DHT22;3835;48.850;8.938;2023-03-23T11:47:54;17.40;99.90
7588;DHT22;3835;48.850;8.938;2023-03-23T11:50:24;17.60;99.90
7588;DHT22;3835;48.850;8.938;2023-03-23T11:52:58;17.50;99.90
7588;DHT22;3835;48.850;8.938;2023-03-23T11:55:30;17.80;99.90
7588;DHT22;3835;48.850;8.938;2023-03-23T11:58:02;17.80;99.90
7588;DHT22;3835;48.850;8.938;2023-03-23T12:00:33;17.80;99.90
7588;DHT22;3835;48.850;8.938;2023-03-23T12:05:54;17.50;99.90
7588;DHT22;3835;48.850;8.938;2023-03-23T12:08:43;16.90;99.90
7588;DHT22;3835;48.850;8.938;2023-03-23T12:11:18;16.80;99.90
7588;DHT22;3835;48.850;8.938;2023-03-23T12:13:59;17.20;99.90
7588;DHT22;3835;48.850;8.938;2023-03-23T12:16:36;17.50;99.90
7588;DHT22;3835;48.850;8.938;2023-03-23T12:19:12;17.10;99.90
7588;DHT22;3835;48.850;8.938;2023-03-23T12:21:46;16.80;99.90
7588;DHT22;3835;48.850;8.938;2023-03-23T12:24:25;17.10;99.90
7588;DHT22;3835;48.850;8.938;2023-03-23T12:27:01;16.90;99.90
7588;DHT22;3835;48.850;8.938;2023-03-23T12:29:46;17.30;99.90
7588;DHT22;3835;48.850;8.938;2023-03-23T12:32:29;17.30;99.90
7588;DHT22;3835;48.850;8.938;2023-03-23T12:35:09;17.40;99.90
7588;DHT22;3835;48.850;8.938;2023-03-23T12:37:47;17.40;99.90
7588;DHT22;3835;48.850;8.938;2023-03-23T12:40:23;17.60;99.90
7588;DHT22;3835;48.850;8.938;2023-03-23T12:42:55;17.80;99.90
7588;DHT22;3835;48.850;8.938;2023-03-23T12:45:55;17.60;99.90
7588;DHT22;3835;48.850;8.938;2023-03-23T12:48:25;17.60;99.90
7588;DHT22;3835;48.850;8.938;2023-03-23T12:51:08;17.20;99.90
7588;DHT22;3835;48.850;8.938;2023-03-23T12:53:41;16.90;99.90
7588;DHT22;3835;48.850;8.938;2023-03-23T12:56:16;17.30;99.90
7588;DHT22;3835;48.850;8.938;2023-03-23T12:58:45;17.30;99.90
7588;DHT22;3835;48.850;8.938;2023-03-23T13:01:18;17.50;99.90
7588;DHT22;3835;48.850;8.938;2023-03-23T13:03:51;17.90;99.90
7588;DHT22;3835;48.850;8.938;2023-03-23T13:06:23;17.90;99.90
7588;DHT22;3835;48.850;8.938;2023-03-23T13:08:55;18.10;99.90
7588;DHT22;3835;48.850;8.938;2023-03-23T13:11:28;18.00;99.90
7588;DHT22;3835;48.850;8.938;2023-03-23T13:14:03;17.80;99.90
7588;DHT22;3835;48.850;8.938;2023-03-23T13:16:38;17.80;99.90
7588;DHT22;3835;48.850;8.938;2023-03-23T13:19:13;17.90;99.90
7588;DHT22;3835;48.850;8.938;2023-03-23T13:21:45;18.10;99.90
7588;DHT22;3835;48.850;8.938;2023-03-23T13:24:15;18.40;99.90
7588;DHT22;3835;48.850;8.938;2023-03-23T13:26:43;18.50;99.90
7588;DHT22;3835;48.850;8.938;2023-03-23T13:29:14;18.50;99.90
7588;DHT22;3835;48.850;8.938;2023-03-23T13:31:45;18.10;99.90
7588;DHT22;3835;48.850;8.938;2023-03-23T13:34:18;17.80;99.90
7588;DHT22;3835;48.850;8.938;2023-03-23T13:36:54;17.70;99.90
7588;DHT22;3835;48.850;8.938;2023-03-23T13:39:23;17.40;99.90
7588;DHT22;3835;48.850;8.938;2023-03-23T13:42:02;17.20;99.90
7588;DHT22;3835;48.850;8.938;2023-03-23T13:44:42;17.20;99.90
7588;DHT22;3835;48.850;8.938;2023-03-23T13:47:26;17.10;99.90
7588;DHT22;3835;48.850;8.938;2023-03-23T13:49:55;17.00;99.90
7588;DHT22;3835;48.850;8.938;2023-03-23T13:52:25;17.00;99.90
7588;DHT22;3835;48.850;8.938;2023-03-23T13:55:21;16.80;99.90
7588;DHT22;3835;48.850;8.938;2023-03-23T13:57:52;16.70;99.90
7588;DHT22;3835;48.850;8.938;2023-03-23T14:00:37;16.60;99.90
7588;DHT22;3835;48.850;8.938;2023-03-23T14:03:11;16.40;99.90
7588;DHT22;3835;48.850;8.938;2023-03-23T14:05:40;16.40;99.90
7588;DHT22;3835;48.850;8.938;2023-03-23T14:08:13;16.40;99.90
7588;DHT22;3835;48.850;8.938;2023-03-23T14:10:43;16.30;99.90
7588;DHT22;3835;48.850;8.938;2023-03-23T14:13:16;16.30;99.90
7588;DHT22;3835;48.850;8.938;2023-03-23T14:15:45;16.40;99.90
7588;DHT22;3835;48.850;8.938;2023-03-23T14:18:25;16.50;99.90
7588;DHT22;3835;48.850;8.938;2023-03-23T14:20:52;16.50;99.90
7588;DHT22;3835;48.850;8.938;2023-03-23T14:23:19;16.60;99.90
7588;DHT22;3835;48.850;8.938;2023-03-23T14:25:55;16.60;99.90
7588;DHT22;3835;48.850;8.938;2023-03-23T14:28:23;16.70;99.90
7588;DHT22;3835;48.850;8.938;2023-03-23T14:30:54;16.80;99.90
7588;DHT22;3835;48.850;8.938;2023-03-23T14:33:24;16.60;99.90
7588;DHT22;3835;48.850;8.938;2023-03-23T14:35:52;16.70;99.90
7588;DHT22;3835;48.850;8.938;2023-03-23T14:38:20;16.70;99.90
7588;DHT22;3835;48.850;8.938;2023-03-23T14:40:49;16.70;99.90
7588;DHT22;3835;48.850;8.938;2023-03-23T14:43:19;16.70;99.90
7588;DHT22;3835;48.850;8.938;2023-03-23T14:45:47;16.60;99.90
7588;DHT22;3835;48.850;8.938;2023-03-23T14:48:15;16.60;99.90
7588;DHT22;3835;48.850;8.938;2023-03-23T14:50:50;16.60;99.90
7588;DHT22;3835;48.850;8.938;2023-03-23T14:53:21;16.60;99.90
7588;DHT22;3835;48.850;8.938;2023-03-23T14:55:50;16.60;99.90
7588;DHT22;3835;48.850;8.938;2023-03-23T14:58:18;16.70;99.90
7588;DHT22;3835;48.850;8.938;2023-03-23T15:00:52;16.80;99.90
7588;DHT22;3835;48.850;8.938;2023-03-23T15:03:20;16.80;99.90
7588;DHT22;3835;48.850;8.938;2023-03-23T15:05:50;16.60;99.90
7588;DHT22;3835;48.850;8.938;2023-03-23T15:08:20;16.50;99.90
7588;DHT22;3835;48.850;8.938;2023-03-23T15:10:52;16.40;99.90
7588;DHT22;3835;48.850;8.938;2023-03-23T15:13:20;16.40;99.90
7588;DHT22;3835;48.850;8.938;2023-03-23T15:15:47;16.40;99.90
7588;DHT22;3835;48.850;8.938;2023-03-23T15:18:29;16.40;99.90
7588;DHT22;3835;48.850;8.938;2023-03-23T15:20:58;16.30;99.90
7588;DHT22;3835;48.850;8.938;2023-03-23T15:23:33;16.10;99.90
7588;DHT22;3835;48.850;8.938;2023-03-23T15:26:05;16.10;99.90
7588;DHT22;3835;48.850;8.938;2023-03-23T15:28:33;16.10;99.90
7588;DHT22;3835;48.850;8.938;2023-03-23T15:31:06;16.10;99.90
7588;DHT22;3835;48.850;8.938;2023-03-23T15:33:37;16.10;99.90
7588;DHT22;3835;48.850;8.938;2023-03-23T15:36:08;16.10;99.90
7588;DHT22;3835;48.850;8.938;2023-03-23T15:38:36;16.10;99.90
7588;DHT22;3835;48.850;8.938;2023-03-23T15:41:05;16.10;99.90
7588;DHT22;3835;48.850;8.938;2023-03-23T15:43:33;16.10;99.90
7588;DHT22;3835;48.850;8.938;2023-03-23T15:46:02;16.10;99.90
7588;DHT22;3835;48.850;8.938;2023-03-23T15:48:31;16.00;99.90
7588;DHT22;3835;48.850;8.938;2023-03-23T15:50:59;16.10;99.90
7588;DHT22;3835;48.850;8.938;2023-03-23T15:53:31;16.10;99.90
7588;DHT22;3835;48.850;8.938;2023-03-23T15:55:59;16.00;99.90
7588;DHT22;3835;48.850;8.938;2023-03-23T15:58:27;16.00;99.90
7588;DHT22;3835;48.850;8.938;2023-03-23T16:00:54;16.00;99.90
7588;DHT22;3835;48.850;8.938;2023-03-23T16:03:23;15.90;99.90
7588;DHT22;3835;48.850;8.938;2023-03-23T16:05:52;15.90;99.90
7588;DHT22;3835;48.850;8.938;2023-03-23T16:08:19;15.90;99.90
7588;DHT22;3835;48.850;8.938;2023-03-23T16:10:47;15.80;99.90
7588;DHT22;3835;48.850;8.938;2023-03-23T16:13:15;15.80;99.90
7588;DHT22;3835;48.850;8.938;2023-03-23T16:15:43;15.80;99.90
7588;DHT22;3835;48.850;8.938;2023-03-23T16:18:16;15.80;99.90
7588;DHT22;3835;48.850;8.938;2023-03-23T16:20:43;15.70;99.90
7588;DHT22;3835;48.850;8.938;2023-03-23T16:23:10;15.70;99.90
7588;DHT22;3835;48.850;8.938;2023-03-23T16:25:37;15.70;99.90
7588;DHT22;3835;48.850;8.938;2023-03-23T16:28:07;15.70;99.90